首页
METAR-TAF:

METAR-TAF

机场 :

Taylor County Airport

Medford, 威斯康辛州, 美国

纬度: 45-06-04N, 经度: 090-18-12W, 海拔: 448米

当前天气观测

该预报发布于14分钟前的18:15 UTC
风速4节,风向南转南东
温度 -1°C
湿度 100%
气压 1008 hPa
能見度: 4.0公里
阴天层高于200英尺
轻雾

METAR: KMDZ 191815Z AUTO 16004KT 2 1/2SM BR OVC002 M01/M01 A2977 RMK AO2 T10121014

时间: 12:29 (18:29 UTC)


TAF: 丢失

超过4000个机场的气象观测和天气预报(METAR&TAF报告)。

可查询的气象台以黄色和红色小点在地图上表示。

将鼠标移到小点上方,可查看气象台名称。

然后点击查看天气观测和预报。

如需切换地图:点击带黑十字的绿色按钮放大地图;点击带横线的绿色按钮缩小地图;或者点击绿色箭头查看邻近地区的地图。


METAR-TAF: